Axel, Colorado
Current Conditions -  °F | °C
As of 7:53 PM on Saturday 25 Oct 2014 (Local Time) from KEEO Reporting Station
Clear Clear  
Wind Chill: 53°   Ceiling: Unl
Heat Index: 53°   Visibility: 10mi
Dew Point: 33°   Wind: 0mph
Humidity: 47%   Direction: NA
Pressure: 30.13"   Gusts: NA
Location:  40.0347°N, 107.628°W
Report Text: KEEO 260153Z AUTO 00000KT 10SM CLR 12/01 A3013 RMK AO2 SLP175 T01170006
Loading
Personal Weather Stations






























Interactive Weather Map New forecast layout! Learn more

10-Day Weather Forecast

Advertisements
Track Severe Weather on mobile